sensor_id;sensor_type;location;lat;lon;timestamp;P1;durP1;ratioP1;P2;durP2;ratioP2
52023;SDS011;38038;45.922;13.604;2023-06-01T06:08:34;229.98;;;217.55;;
52023;SDS011;38038;45.922;13.604;2023-06-01T06:11:01;248.80;;;234.88;;
52023;SDS011;38038;45.922;13.604;2023-06-01T06:13:26;255.63;;;241.23;;
52023;SDS011;38038;45.922;13.604;2023-06-01T06:15:52;237.50;;;224.63;;
52023;SDS011;38038;45.922;13.604;2023-06-01T06:18:19;255.60;;;241.63;;
52023;SDS011;38038;45.922;13.604;2023-06-01T06:20:46;251.95;;;237.95;;
52023;SDS011;38038;45.922;13.604;2023-06-01T06:23:11;251.15;;;237.32;;
52023;SDS011;38038;45.922;13.604;2023-06-01T06:25:38;245.93;;;232.23;;
52023;SDS011;38038;45.922;13.604;2023-06-01T06:28:05;284.88;;;268.90;;
52023;SDS011;38038;45.922;13.604;2023-06-01T06:30:31;273.88;;;258.50;;
52023;SDS011;38038;45.922;13.604;2023-06-01T06:32:56;288.00;;;271.67;;
52023;SDS011;38038;45.922;13.604;2023-06-01T06:35:23;297.85;;;281.13;;
52023;SDS011;38038;45.922;13.604;2023-06-01T06:37:48;297.33;;;280.65;;
52023;SDS011;38038;45.922;13.604;2023-06-01T06:40:14;261.55;;;246.93;;
52023;SDS011;38038;45.922;13.604;2023-06-01T06:42:42;275.27;;;260.13;;
52023;SDS011;38038;45.922;13.604;2023-06-01T06:45:08;271.58;;;255.93;;
52023;SDS011;38038;45.922;13.604;2023-06-01T06:47:36;260.60;;;246.20;;
52023;SDS011;38038;45.922;13.604;2023-06-01T06:50:02;257.13;;;243.23;;
52023;SDS011;38038;45.922;13.604;2023-06-01T06:52:28;215.18;;;203.75;;
52023;SDS011;38038;45.922;13.604;2023-06-01T06:54:54;184.95;;;175.38;;
52023;SDS011;38038;45.922;13.604;2023-06-01T06:57:20;172.82;;;163.85;;
52023;SDS011;38038;45.922;13.604;2023-06-01T06:59:46;183.80;;;174.18;;
52023;SDS011;38038;45.922;13.604;2023-06-01T07:02:12;203.80;;;192.02;;
52023;SDS011;38038;45.922;13.604;2023-06-01T07:04:38;197.45;;;186.80;;
52023;SDS011;38038;45.922;13.604;2023-06-01T07:07:05;190.35;;;179.65;;
52023;SDS011;38038;45.922;13.604;2023-06-01T07:09:30;180.68;;;170.52;;
52023;SDS011;38038;45.922;13.604;2023-06-01T07:11:56;167.68;;;158.02;;
52023;SDS011;38038;45.922;13.604;2023-06-01T07:14:22;170.88;;;161.23;;
52023;SDS011;38038;45.922;13.604;2023-06-01T07:16:48;170.32;;;160.88;;
52023;SDS011;38038;45.922;13.604;2023-06-01T07:19:13;166.55;;;157.02;;
52023;SDS011;38038;45.922;13.604;2023-06-01T07:21:39;179.80;;;169.55;;
52023;SDS011;38038;45.922;13.604;2023-06-01T07:24:05;169.23;;;160.02;;
52023;SDS011;38038;45.922;13.604;2023-06-01T07:26:31;184.88;;;174.48;;
52023;SDS011;38038;45.922;13.604;2023-06-01T07:28:57;173.02;;;163.55;;
52023;SDS011;38038;45.922;13.604;2023-06-01T07:31:24;163.63;;;154.50;;
52023;SDS011;38038;45.922;13.604;2023-06-01T07:33:52;182.73;;;172.77;;
52023;SDS011;38038;45.922;13.604;2023-06-01T07:36:20;181.63;;;171.75;;
52023;SDS011;38038;45.922;13.604;2023-06-01T07:38:48;190.40;;;180.10;;
52023;SDS011;38038;45.922;13.604;2023-06-01T07:41:14;190.05;;;179.18;;
52023;SDS011;38038;45.922;13.604;2023-06-01T07:43:40;195.15;;;184.70;;
52023;SDS011;38038;45.922;13.604;2023-06-01T07:46:05;190.27;;;179.93;;
52023;SDS011;38038;45.922;13.604;2023-06-01T07:48:31;190.23;;;179.70;;
52023;SDS011;38038;45.922;13.604;2023-06-01T07:51:03;200.95;;;189.95;;
52023;SDS011;38038;45.922;13.604;2023-06-01T07:53:29;189.82;;;179.32;;
52023;SDS011;38038;45.922;13.604;2023-06-01T07:55:56;188.55;;;177.75;;
52023;SDS011;38038;45.922;13.604;2023-06-01T07:58:22;184.77;;;174.55;;
52023;SDS011;38038;45.922;13.604;2023-06-01T08:00:47;205.07;;;193.73;;
52023;SDS011;38038;45.922;13.604;2023-06-01T08:03:14;161.65;;;152.88;;
52023;SDS011;38038;45.922;13.604;2023-06-01T08:05:40;180.80;;;170.55;;
52023;SDS011;38038;45.922;13.604;2023-06-01T08:08:07;181.13;;;171.13;;
52023;SDS011;38038;45.922;13.604;2023-06-01T08:10:34;171.75;;;162.20;;
52023;SDS011;38038;45.922;13.604;2023-06-01T08:13:00;170.98;;;161.57;;
52023;SDS011;38038;45.922;13.604;2023-06-01T08:15:27;184.32;;;174.02;;
52023;SDS011;38038;45.922;13.604;2023-06-01T08:17:53;172.02;;;162.40;;
52023;SDS011;38038;45.922;13.604;2023-06-01T08:20:19;165.30;;;155.80;;
52023;SDS011;38038;45.922;13.604;2023-06-01T08:22:46;167.18;;;157.88;;
52023;SDS011;38038;45.922;13.604;2023-06-01T08:25:12;178.30;;;168.02;;
52023;SDS011;38038;45.922;13.604;2023-06-01T08:27:39;168.38;;;158.63;;
52023;SDS011;38038;45.922;13.604;2023-06-01T08:30:06;163.43;;;154.23;;
52023;SDS011;38038;45.922;13.604;2023-06-01T08:32:32;156.85;;;148.02;;
52023;SDS011;38038;45.922;13.604;2023-06-01T08:34:58;159.23;;;150.27;;
52023;SDS011;38038;45.922;13.604;2023-06-01T08:37:23;163.80;;;154.85;;
52023;SDS011;38038;45.922;13.604;2023-06-01T08:39:49;169.88;;;159.90;;
52023;SDS011;38038;45.922;13.604;2023-06-01T08:45:19;169.30;;;159.83;;
52023;SDS011;38038;45.922;13.604;2023-06-01T08:47:45;157.15;;;148.18;;
52023;SDS011;38038;45.922;13.604;2023-06-01T08:50:14;161.68;;;152.73;;
52023;SDS011;38038;45.922;13.604;2023-06-01T08:52:41;157.43;;;148.50;;
52023;SDS011;38038;45.922;13.604;2023-06-01T08:55:11;145.57;;;137.25;;
52023;SDS011;38038;45.922;13.604;2023-06-01T08:57:39;157.13;;;148.07;;
52023;SDS011;38038;45.922;13.604;2023-06-01T09:00:07;151.75;;;142.98;;
52023;SDS011;38038;45.922;13.604;2023-06-01T09:02:36;147.02;;;138.90;;
52023;SDS011;38038;45.922;13.604;2023-06-01T09:05:02;151.32;;;142.82;;
52023;SDS011;38038;45.922;13.604;2023-06-01T09:07:29;161.38;;;152.13;;
52023;SDS011;38038;45.922;13.604;2023-06-01T09:09:56;157.10;;;148.30;;
52023;SDS011;38038;45.922;13.604;2023-06-01T09:12:26;148.88;;;140.20;;
52023;SDS011;38038;45.922;13.604;2023-06-01T09:15:09;152.75;;;142.95;;
52023;SDS011;38038;45.922;13.604;2023-06-01T09:17:35;162.27;;;153.05;;
52023;SDS011;38038;45.922;13.604;2023-06-01T09:20:02;135.55;;;127.88;;
52023;SDS011;38038;45.922;13.604;2023-06-01T09:22:46;152.30;;;143.63;;
52023;SDS011;38038;45.922;13.604;2023-06-01T09:25:12;142.70;;;134.60;;
52023;SDS011;38038;45.922;13.604;2023-06-01T09:27:48;148.52;;;139.68;;
52023;SDS011;38038;45.922;13.604;2023-06-01T09:30:16;150.07;;;141.70;;
52023;SDS011;38038;45.922;13.604;2023-06-01T09:32:43;145.55;;;137.45;;
52023;SDS011;38038;45.922;13.604;2023-06-01T09:35:13;143.93;;;135.55;;
52023;SDS011;38038;45.922;13.604;2023-06-01T09:37:38;187.13;;;176.18;;
52023;SDS011;38038;45.922;13.604;2023-06-01T09:40:20;148.45;;;139.93;;
52023;SDS011;38038;45.922;13.604;2023-06-01T09:42:46;144.82;;;137.00;;
52023;SDS011;38038;45.922;13.604;2023-06-01T09:45:15;135.00;;;127.38;;
52023;SDS011;38038;45.922;13.604;2023-06-01T09:47:46;145.25;;;136.77;;
52023;SDS011;38038;45.922;13.604;2023-06-01T09:50:31;135.35;;;128.23;;
52023;SDS011;38038;45.922;13.604;2023-06-01T09:52:57;126.30;;;119.30;;
52023;SDS011;38038;45.922;13.604;2023-06-01T09:55:25;142.75;;;134.90;;
52023;SDS011;38038;45.922;13.604;2023-06-01T09:57:51;154.27;;;145.98;;
52023;SDS011;38038;45.922;13.604;2023-06-01T10:00:23;153.25;;;144.90;;
52023;SDS011;38038;45.922;13.604;2023-06-01T10:02:50;160.18;;;151.65;;
52023;SDS011;38038;45.922;13.604;2023-06-01T10:05:17;144.68;;;136.88;;
52023;SDS011;38038;45.922;13.604;2023-06-01T10:07:43;156.68;;;148.25;;
52023;SDS011;38038;45.922;13.604;2023-06-01T10:10:12;140.95;;;133.43;;
52023;SDS011;38038;45.922;13.604;2023-06-01T10:12:40;164.10;;;155.20;;
52023;SDS011;38038;45.922;13.604;2023-06-01T10:15:09;149.45;;;141.57;;
52023;SDS011;38038;45.922;13.604;2023-06-01T10:17:36;161.70;;;152.90;;
52023;SDS011;38038;45.922;13.604;2023-06-01T10:20:07;152.95;;;144.93;;
52023;SDS011;38038;45.922;13.604;2023-06-01T10:22:38;146.48;;;138.57;;
52023;SDS011;38038;45.922;13.604;2023-06-01T10:25:06;158.98;;;150.48;;
52023;SDS011;38038;45.922;13.604;2023-06-01T10:27:38;153.57;;;145.40;;
52023;SDS011;38038;45.922;13.604;2023-06-01T10:30:09;163.55;;;154.77;;
52023;SDS011;38038;45.922;13.604;2023-06-01T10:35:55;136.52;;;129.38;;
52023;SDS011;38038;45.922;13.604;2023-06-01T10:40:34;204.48;;;192.95;;
52023;SDS011;38038;45.922;13.604;2023-06-01T10:43:01;139.02;;;130.30;;
52023;SDS011;38038;45.922;13.604;2023-06-01T10:48:07;146.80;;;138.90;;
52023;SDS011;38038;45.922;13.604;2023-06-01T10:50:37;142.30;;;134.63;;
52023;SDS011;38038;45.922;13.604;2023-06-01T10:58:33;158.32;;;149.95;;
52023;SDS011;38038;45.922;13.604;2023-06-01T11:00:59;148.30;;;140.43;;
52023;SDS011;38038;45.922;13.604;2023-06-01T11:03:45;151.73;;;143.75;;
52023;SDS011;38038;45.922;13.604;2023-06-01T11:09:01;159.52;;;150.98;;
52023;SDS011;38038;45.922;13.604;2023-06-01T11:14:19;152.15;;;144.20;;
52023;SDS011;38038;45.922;13.604;2023-06-01T11:16:50;146.93;;;139.32;;
52023;SDS011;38038;45.922;13.604;2023-06-01T11:19:20;176.00;;;166.88;;
52023;SDS011;38038;45.922;13.604;2023-06-01T11:21:54;170.23;;;161.25;;
52023;SDS011;38038;45.922;13.604;2023-06-01T11:24:25;148.95;;;140.95;;
52023;SDS011;38038;45.922;13.604;2023-06-01T11:27:04;145.43;;;137.95;;
52023;SDS011;38038;45.922;13.604;2023-06-01T11:29:31;156.38;;;148.15;;
52023;SDS011;38038;45.922;13.604;2023-06-01T11:31:58;159.55;;;151.32;;
52023;SDS011;38038;45.922;13.604;2023-06-01T11:34:35;152.20;;;144.38;;
52023;SDS011;38038;45.922;13.604;2023-06-01T11:37:04;159.98;;;151.45;;
52023;SDS011;38038;45.922;13.604;2023-06-01T11:39:30;162.57;;;154.00;;
52023;SDS011;38038;45.922;13.604;2023-06-01T11:42:13;183.80;;;174.23;;
52023;SDS011;38038;45.922;13.604;2023-06-01T11:44:41;156.32;;;148.07;;
52023;SDS011;38038;45.922;13.604;2023-06-01T11:47:12;177.00;;;167.98;;
52023;SDS011;38038;45.922;13.604;2023-06-01T11:49:48;159.93;;;151.63;;
52023;SDS011;38038;45.922;13.604;2023-06-01T11:52:17;149.40;;;141.65;;
52023;SDS011;38038;45.922;13.604;2023-06-01T11:54:47;154.45;;;146.30;;
52023;SDS011;38038;45.922;13.604;2023-06-01T11:57:14;165.55;;;156.25;;
52023;SDS011;38038;45.922;13.604;2023-06-01T11:59:41;159.63;;;150.75;;
52023;SDS011;38038;45.922;13.604;2023-06-01T12:04:59;161.30;;;152.48;;
52023;SDS011;38038;45.922;13.604;2023-06-01T12:07:43;162.75;;;153.73;;
52023;SDS011;38038;45.922;13.604;2023-06-01T12:10:13;148.50;;;140.38;;
52023;SDS011;38038;45.922;13.604;2023-06-01T12:12:41;154.55;;;146.00;;
52023;SDS011;38038;45.922;13.604;2023-06-01T12:15:11;156.35;;;147.40;;
52023;SDS011;38038;45.922;13.604;2023-06-01T12:20:29;155.15;;;146.50;;
52023;SDS011;38038;45.922;13.604;2023-06-01T12:23:00;155.20;;;146.73;;
52023;SDS011;38038;45.922;13.604;2023-06-01T12:25:48;155.35;;;146.75;;
52023;SDS011;38038;45.922;13.604;2023-06-01T12:28:18;153.27;;;144.82;;
52023;SDS011;38038;45.922;13.604;2023-06-01T12:30:44;149.50;;;141.30;;
52023;SDS011;38038;45.922;13.604;2023-06-01T12:33:52;152.25;;;143.80;;
52023;SDS011;38038;45.922;13.604;2023-06-01T12:36:00;153.88;;;145.48;;
52023;SDS011;38038;45.922;13.604;2023-06-01T12:38:27;149.68;;;141.27;;
52023;SDS011;38038;45.922;13.604;2023-06-01T12:41:05;156.18;;;147.25;;
52023;SDS011;38038;45.922;13.604;2023-06-01T12:43:35;142.25;;;134.25;;
52023;SDS011;38038;45.922;13.604;2023-06-01T12:46:01;140.00;;;132.07;;
52023;SDS011;38038;45.922;13.604;2023-06-01T12:48:33;159.10;;;150.20;;
52023;SDS011;38038;45.922;13.604;2023-06-01T12:51:01;146.10;;;137.82;;
52023;SDS011;38038;45.922;13.604;2023-06-01T12:53:28;156.68;;;148.02;;
52023;SDS011;38038;45.922;13.604;2023-06-01T12:55:54;190.30;;;180.05;;
52023;SDS011;38038;45.922;13.604;2023-06-01T12:58:20;245.13;;;231.45;;
52023;SDS011;38038;45.922;13.604;2023-06-01T13:00:46;247.70;;;234.07;;
52023;SDS011;38038;45.922;13.604;2023-06-01T13:03:12;260.45;;;246.13;;
52023;SDS011;38038;45.922;13.604;2023-06-01T13:05:42;193.80;;;183.65;;
52023;SDS011;38038;45.922;13.604;2023-06-01T13:08:11;192.27;;;182.25;;
52023;SDS011;38038;45.922;13.604;2023-06-01T13:10:37;172.75;;;163.75;;
52023;SDS011;38038;45.922;13.604;2023-06-01T13:13:03;259.30;;;245.15;;
52023;SDS011;38038;45.922;13.604;2023-06-01T13:15:29;228.75;;;216.18;;
52023;SDS011;38038;45.922;13.604;2023-06-01T13:17:54;197.57;;;187.05;;
52023;SDS011;38038;45.922;13.604;2023-06-01T13:20:21;203.00;;;191.75;;
52023;SDS011;38038;45.922;13.604;2023-06-01T13:22:47;218.48;;;206.68;;
52023;SDS011;38038;45.922;13.604;2023-06-01T13:25:13;179.45;;;169.45;;
52023;SDS011;38038;45.922;13.604;2023-06-01T13:27:39;193.25;;;182.80;;
52023;SDS011;38038;45.922;13.604;2023-06-01T13:30:05;200.40;;;189.73;;
52023;SDS011;38038;45.922;13.604;2023-06-01T13:32:32;206.73;;;195.63;;
52023;SDS011;38038;45.922;13.604;2023-06-01T13:34:58;202.13;;;191.32;;
52023;SDS011;38038;45.922;13.604;2023-06-01T13:37:24;231.02;;;218.60;;
52023;SDS011;38038;45.922;13.604;2023-06-01T13:39:49;229.35;;;217.00;;
52023;SDS011;38038;45.922;13.604;2023-06-01T13:42:18;257.92;;;243.95;;
52023;SDS011;38038;45.922;13.604;2023-06-01T13:44:44;281.60;;;266.55;;
52023;SDS011;38038;45.922;13.604;2023-06-01T13:47:12;275.58;;;260.73;;
52023;SDS011;38038;45.922;13.604;2023-06-01T13:49:40;282.17;;;266.73;;
52023;SDS011;38038;45.922;13.604;2023-06-01T13:52:06;301.83;;;285.67;;
52023;SDS011;38038;45.922;13.604;2023-06-01T13:54:33;280.45;;;265.70;;
52023;SDS011;38038;45.922;13.604;2023-06-01T13:56:59;313.15;;;296.08;;
52023;SDS011;38038;45.922;13.604;2023-06-01T13:59:25;320.35;;;302.75;;
52023;SDS011;38038;45.922;13.604;2023-06-01T14:01:51;305.17;;;288.52;;
52023;SDS011;38038;45.922;13.604;2023-06-01T14:04:17;351.13;;;331.48;;
52023;SDS011;38038;45.922;13.604;2023-06-01T14:06:43;337.30;;;318.38;;
52023;SDS011;38038;45.922;13.604;2023-06-01T14:09:09;339.23;;;320.63;;
52023;SDS011;38038;45.922;13.604;2023-06-01T14:11:35;311.35;;;294.23;;
52023;SDS011;38038;45.922;13.604;2023-06-01T14:14:01;307.95;;;290.85;;
52023;SDS011;38038;45.922;13.604;2023-06-01T14:16:27;340.20;;;321.27;;
52023;SDS011;38038;45.922;13.604;2023-06-01T14:18:52;313.77;;;296.48;;
52023;SDS011;38038;45.922;13.604;2023-06-01T14:21:18;262.85;;;248.40;;
52023;SDS011;38038;45.922;13.604;2023-06-01T14:23:44;289.13;;;272.95;;
52023;SDS011;38038;45.922;13.604;2023-06-01T14:26:10;280.52;;;265.33;;
52023;SDS011;38038;45.922;13.604;2023-06-01T14:28:36;277.48;;;262.15;;
52023;SDS011;38038;45.922;13.604;2023-06-01T14:31:02;262.95;;;248.65;;
52023;SDS011;38038;45.922;13.604;2023-06-01T14:33:28;319.60;;;302.30;;
52023;SDS011;38038;45.922;13.604;2023-06-01T14:35:53;280.98;;;265.48;;
52023;SDS011;38038;45.922;13.604;2023-06-01T14:38:19;292.73;;;276.73;;
52023;SDS011;38038;45.922;13.604;2023-06-01T14:40:45;287.70;;;272.25;;
52023;SDS011;38038;45.922;13.604;2023-06-01T14:43:11;302.08;;;285.65;;
52023;SDS011;38038;45.922;13.604;2023-06-01T14:45:36;248.57;;;234.85;;
52023;SDS011;38038;45.922;13.604;2023-06-01T14:48:02;221.68;;;209.77;;
52023;SDS011;38038;45.922;13.604;2023-06-01T14:50:28;247.18;;;233.73;;
52023;SDS011;38038;45.922;13.604;2023-06-01T14:52:53;245.77;;;232.27;;
52023;SDS011;38038;45.922;13.604;2023-06-01T14:55:24;222.30;;;210.50;;
52023;SDS011;38038;45.922;13.604;2023-06-01T14:57:50;320.00;;;302.40;;
52023;SDS011;38038;45.922;13.604;2023-06-01T15:00:16;262.30;;;248.38;;
52023;SDS011;38038;45.922;13.604;2023-06-01T15:02:43;250.32;;;236.45;;
52023;SDS011;38038;45.922;13.604;2023-06-01T15:05:10;249.40;;;236.07;;
52023;SDS011;38038;45.922;13.604;2023-06-01T15:07:36;243.00;;;229.60;;
52023;SDS011;38038;45.922;13.604;2023-06-01T15:10:02;234.63;;;221.93;;
52023;SDS011;38038;45.922;13.604;2023-06-01T15:12:28;216.07;;;204.57;;
52023;SDS011;38038;45.922;13.604;2023-06-01T15:14:54;215.75;;;204.18;;
52023;SDS011;38038;45.922;13.604;2023-06-01T15:17:20;194.38;;;183.98;;
52023;SDS011;38038;45.922;13.604;2023-06-01T15:19:46;182.15;;;172.45;;
52023;SDS011;38038;45.922;13.604;2023-06-01T15:22:12;166.77;;;157.98;;
52023;SDS011;38038;45.922;13.604;2023-06-01T15:24:38;171.60;;;162.38;;
52023;SDS011;38038;45.922;13.604;2023-06-01T15:27:05;191.73;;;181.63;;
52023;SDS011;38038;45.922;13.604;2023-06-01T15:29:32;179.90;;;170.43;;
52023;SDS011;38038;45.922;13.604;2023-06-01T15:31:58;155.23;;;147.10;;
52023;SDS011;38038;45.922;13.604;2023-06-01T15:34:23;170.02;;;161.05;;
52023;SDS011;38038;45.922;13.604;2023-06-01T15:36:49;170.77;;;161.68;;
52023;SDS011;38038;45.922;13.604;2023-06-01T15:39:15;171.07;;;162.02;;
52023;SDS011;38038;45.922;13.604;2023-06-01T15:41:41;182.73;;;173.10;;
52023;SDS011;38038;45.922;13.604;2023-06-01T15:44:07;203.20;;;192.25;;
52023;SDS011;38038;45.922;13.604;2023-06-01T15:46:33;197.32;;;186.73;;
52023;SDS011;38038;45.922;13.604;2023-06-01T15:48:59;185.32;;;175.02;;
52023;SDS011;38038;45.922;13.604;2023-06-01T15:51:25;185.73;;;175.70;;
52023;SDS011;38038;45.922;13.604;2023-06-01T15:53:51;196.25;;;185.60;;
52023;SDS011;38038;45.922;13.604;2023-06-01T15:56:17;165.70;;;156.80;;
52023;SDS011;38038;45.922;13.604;2023-06-01T15:58:43;228.60;;;216.18;;
52023;SDS011;38038;45.922;13.604;2023-06-01T16:01:09;189.07;;;178.88;;
52023;SDS011;38038;45.922;13.604;2023-06-01T16:03:35;222.05;;;209.95;;
52023;SDS011;38038;45.922;13.604;2023-06-01T16:06:01;231.52;;;219.00;;
52023;SDS011;38038;45.922;13.604;2023-06-01T16:08:27;198.07;;;187.23;;
52023;SDS011;38038;45.922;13.604;2023-06-01T16:10:52;174.68;;;165.18;;
52023;SDS011;38038;45.922;13.604;2023-06-01T16:13:18;201.18;;;190.32;;
52023;SDS011;38038;45.922;13.604;2023-06-01T16:15:44;195.65;;;185.00;;
52023;SDS011;38038;45.922;13.604;2023-06-01T16:18:10;177.18;;;167.68;;
52023;SDS011;38038;45.922;13.604;2023-06-01T16:20:35;203.70;;;192.68;;
52023;SDS011;38038;45.922;13.604;2023-06-01T16:23:01;193.65;;;183.13;;
52023;SDS011;38038;45.922;13.604;2023-06-01T16:25:27;162.40;;;153.60;;
52023;SDS011;38038;45.922;13.604;2023-06-01T16:27:53;166.30;;;157.05;;
52023;SDS011;38038;45.922;13.604;2023-06-01T16:30:19;178.13;;;168.27;;
52023;SDS011;38038;45.922;13.604;2023-06-01T16:32:45;178.43;;;168.80;;
52023;SDS011;38038;45.922;13.604;2023-06-01T16:35:12;187.25;;;177.10;;
52023;SDS011;38038;45.922;13.604;2023-06-01T16:37:37;194.15;;;183.60;;
52023;SDS011;38038;45.922;13.604;2023-06-01T16:40:04;156.07;;;147.45;;
52023;SDS011;38038;45.922;13.604;2023-06-01T16:42:31;152.90;;;144.57;;
52023;SDS011;38038;45.922;13.604;2023-06-01T16:44:56;151.88;;;143.88;;
52023;SDS011;38038;45.922;13.604;2023-06-01T16:47:22;224.27;;;211.95;;
52023;SDS011;38038;45.922;13.604;2023-06-01T16:49:48;168.05;;;159.07;;
52023;SDS011;38038;45.922;13.604;2023-06-01T16:52:14;190.05;;;179.73;;
52023;SDS011;38038;45.922;13.604;2023-06-01T16:54:39;180.63;;;170.60;;
52023;SDS011;38038;45.922;13.604;2023-06-01T16:57:05;156.05;;;147.77;;
52023;SDS011;38038;45.922;13.604;2023-06-01T16:59:34;170.75;;;161.25;;
52023;SDS011;38038;45.922;13.604;2023-06-01T17:02:00;186.77;;;176.82;;
52023;SDS011;38038;45.922;13.604;2023-06-01T17:04:26;176.93;;;167.07;;
52023;SDS011;38038;45.922;13.604;2023-06-01T17:06:52;170.63;;;161.43;;
52023;SDS011;38038;45.922;13.604;2023-06-01T17:09:18;171.20;;;161.95;;
52023;SDS011;38038;45.922;13.604;2023-06-01T17:11:43;156.20;;;147.85;;
52023;SDS011;38038;45.922;13.604;2023-06-01T17:14:09;142.15;;;134.50;;
52023;SDS011;38038;45.922;13.604;2023-06-01T17:16:35;142.80;;;134.70;;
52023;SDS011;38038;45.922;13.604;2023-06-01T17:19:01;140.43;;;132.80;;
52023;SDS011;38038;45.922;13.604;2023-06-01T17:21:26;126.05;;;119.30;;
52023;SDS011;38038;45.922;13.604;2023-06-01T17:23:52;143.68;;;135.93;;
52023;SDS011;38038;45.922;13.604;2023-06-01T17:26:19;162.43;;;153.73;;
52023;SDS011;38038;45.922;13.604;2023-06-01T17:28:45;154.40;;;146.13;;
52023;SDS011;38038;45.922;13.604;2023-06-01T17:31:11;165.25;;;156.18;;
52023;SDS011;38038;45.922;13.604;2023-06-01T17:33:37;162.20;;;153.52;;
52023;SDS011;38038;45.922;13.604;2023-06-01T17:36:03;159.27;;;150.70;;
52023;SDS011;38038;45.922;13.604;2023-06-01T17:38:28;162.10;;;153.32;;
52023;SDS011;38038;45.922;13.604;2023-06-01T17:40:54;152.05;;;143.85;;
52023;SDS011;38038;45.922;13.604;2023-06-01T17:43:20;185.00;;;173.25;;
52023;SDS011;38038;45.922;13.604;2023-06-01T17:45:46;151.68;;;143.45;;
52023;SDS011;38038;45.922;13.604;2023-06-01T17:48:12;149.85;;;141.70;;
52023;SDS011;38038;45.922;13.604;2023-06-01T17:50:38;143.40;;;135.73;;
52023;SDS011;38038;45.922;13.604;2023-06-01T17:53:03;174.13;;;164.73;;
52023;SDS011;38038;45.922;13.604;2023-06-01T17:55:29;169.13;;;160.00;;
52023;SDS011;38038;45.922;13.604;2023-06-01T17:57:55;168.35;;;159.38;;
52023;SDS011;38038;45.922;13.604;2023-06-01T18:00:20;163.23;;;154.35;;
52023;SDS011;38038;45.922;13.604;2023-06-01T18:02:46;159.43;;;151.00;;
52023;SDS011;38038;45.922;13.604;2023-06-01T18:05:13;179.60;;;169.75;;
52023;SDS011;38038;45.922;13.604;2023-06-01T18:07:39;150.93;;;142.75;;
52023;SDS011;38038;45.922;13.604;2023-06-01T18:10:05;171.43;;;162.13;;
52023;SDS011;38038;45.922;13.604;2023-06-01T18:12:31;154.60;;;146.13;;
52023;SDS011;38038;45.922;13.604;2023-06-01T18:14:59;206.90;;;195.88;;
52023;SDS011;38038;45.922;13.604;2023-06-01T18:17:25;187.23;;;177.05;;
52023;SDS011;38038;45.922;13.604;2023-06-01T18:19:51;166.27;;;157.07;;
52023;SDS011;38038;45.922;13.604;2023-06-01T18:22:17;192.45;;;182.02;;
52023;SDS011;38038;45.922;13.604;2023-06-01T18:24:42;174.43;;;164.88;;
52023;SDS011;38038;45.922;13.604;2023-06-01T18:27:08;194.77;;;184.15;;
52023;SDS011;38038;45.922;13.604;2023-06-01T18:29:34;185.23;;;175.07;;
52023;SDS011;38038;45.922;13.604;2023-06-01T18:32:00;176.07;;;166.55;;
52023;SDS011;38038;45.922;13.604;2023-06-01T18:34:26;181.18;;;171.20;;
52023;SDS011;38038;45.922;13.604;2023-06-01T18:36:52;177.30;;;167.52;;
52023;SDS011;38038;45.922;13.604;2023-06-01T18:39:17;174.27;;;164.52;;
52023;SDS011;38038;45.922;13.604;2023-06-01T18:41:43;184.43;;;174.40;;
52023;SDS011;38038;45.922;13.604;2023-06-01T18:44:09;175.77;;;166.15;;
52023;SDS011;38038;45.922;13.604;2023-06-01T18:46:34;169.25;;;160.02;;
52023;SDS011;38038;45.922;13.604;2023-06-01T18:49:02;244.18;;;229.13;;
52023;SDS011;38038;45.922;13.604;2023-06-01T18:51:29;186.20;;;175.98;;
52023;SDS011;38038;45.922;13.604;2023-06-01T18:53:56;173.98;;;164.40;;
52023;SDS011;38038;45.922;13.604;2023-06-01T18:56:22;170.77;;;161.48;;
52023;SDS011;38038;45.922;13.604;2023-06-01T18:58:48;173.85;;;164.35;;
52023;SDS011;38038;45.922;13.604;2023-06-01T19:01:13;231.57;;;218.65;;
52023;SDS011;38038;45.922;13.604;2023-06-01T19:03:39;214.63;;;203.13;;
52023;SDS011;38038;45.922;13.604;2023-06-01T19:06:06;165.93;;;156.82;;
52023;SDS011;38038;45.922;13.604;2023-06-01T19:08:33;161.75;;;152.77;;
52023;SDS011;38038;45.922;13.604;2023-06-01T19:18:29;183.38;;;173.20;;
52023;SDS011;38038;45.922;13.604;2023-06-01T19:21:05;178.55;;;168.82;;
52023;SDS011;38038;45.922;13.604;2023-06-01T19:23:33;183.27;;;173.13;;
52023;SDS011;38038;45.922;13.604;2023-06-01T19:25:58;223.55;;;211.52;;
52023;SDS011;38038;45.922;13.604;2023-06-01T19:28:24;178.45;;;168.48;;
52023;SDS011;38038;45.922;13.604;2023-06-01T19:30:49;189.52;;;179.10;;
52023;SDS011;38038;45.922;13.604;2023-06-01T19:33:16;210.48;;;199.18;;
52023;SDS011;38038;45.922;13.604;2023-06-01T19:35:43;225.77;;;213.50;;
52023;SDS011;38038;45.922;13.604;2023-06-01T19:38:13;219.35;;;207.38;;
52023;SDS011;38038;45.922;13.604;2023-06-01T19:40:43;196.80;;;186.05;;
52023;SDS011;38038;45.922;13.604;2023-06-01T19:43:30;204.15;;;193.02;;
52023;SDS011;38038;45.922;13.604;2023-06-01T19:46:16;221.15;;;209.30;;
52023;SDS011;38038;45.922;13.604;2023-06-01T19:48:44;209.88;;;198.23;;
52023;SDS011;38038;45.922;13.604;2023-06-01T19:51:12;187.40;;;177.30;;
52023;SDS011;38038;45.922;13.604;2023-06-01T19:53:38;189.02;;;178.82;;
52023;SDS011;38038;45.922;13.604;2023-06-01T19:59:00;176.65;;;167.02;;
52023;SDS011;38038;45.922;13.604;2023-06-01T20:01:27;175.93;;;166.45;;
52023;SDS011;38038;45.922;13.604;2023-06-01T20:03:54;188.27;;;178.18;;
52023;SDS011;38038;45.922;13.604;2023-06-01T20:06:22;195.05;;;184.32;;
52023;SDS011;38038;45.922;13.604;2023-06-01T20:08:50;197.95;;;187.20;;
52023;SDS011;38038;45.922;13.604;2023-06-01T20:11:20;202.82;;;191.95;;
52023;SDS011;38038;45.922;13.604;2023-06-01T20:13:47;188.82;;;178.57;;
52023;SDS011;38038;45.922;13.604;2023-06-01T20:16:12;169.15;;;159.88;;
52023;SDS011;38038;45.922;13.604;2023-06-01T20:18:42;200.15;;;189.60;;
52023;SDS011;38038;45.922;13.604;2023-06-01T20:21:08;181.32;;;171.80;;
52023;SDS011;38038;45.922;13.604;2023-06-01T20:23:34;190.43;;;180.35;;
52023;SDS011;38038;45.922;13.604;2023-06-01T20:26:00;152.70;;;144.73;;
52023;SDS011;38038;45.922;13.604;2023-06-01T20:28:47;214.98;;;203.75;;
52023;SDS011;38038;45.922;13.604;2023-06-01T20:31:15;176.82;;;167.68;;